createdAt,value
2023-05-05T00:01:17.344Z,4.4
2023-05-05T00:07:02.181Z,3.7
2023-05-05T00:12:47.129Z,3.3
2023-05-05T00:18:31.762Z,4.4
2023-05-05T00:24:16.449Z,3.5
2023-05-05T00:30:01.318Z,3.4
2023-05-05T00:35:46.112Z,3.9
2023-05-05T00:41:30.992Z,3.6
2023-05-05T00:47:16.168Z,3.6
2023-05-05T00:53:03.916Z,3.5
2023-05-05T00:58:49.428Z,3.6
2023-05-05T01:04:34.379Z,3.8
2023-05-05T01:10:26.069Z,3.6
2023-05-05T01:16:17.692Z,3.9
2023-05-05T01:22:05.696Z,4.3
2023-05-05T01:27:57.646Z,4.4
2023-05-05T01:33:47.311Z,4.2
2023-05-05T01:39:35.093Z,3.9
2023-05-05T01:45:21.309Z,4.6
2023-05-05T01:51:06.652Z,4
2023-05-05T01:56:52.605Z,3.6
2023-05-05T02:02:39.492Z,3.7
2023-05-05T02:08:24.940Z,4
2023-05-05T02:14:09.888Z,4.4
2023-05-05T02:19:55.367Z,3.7
2023-05-05T02:25:41.645Z,3.9
2023-05-05T02:31:27.561Z,5.6
2023-05-05T02:37:14.248Z,4.5
2023-05-05T02:42:59.661Z,3.4
2023-05-05T02:48:44.224Z,3.5
2023-05-05T02:54:29.951Z,3.5
2023-05-05T03:00:20.407Z,3.9
2023-05-05T03:06:11.195Z,3.8
2023-05-05T03:12:00.401Z,3.7
2023-05-05T03:17:46.698Z,4.1
2023-05-05T03:23:31.465Z,3.5
2023-05-05T03:29:16.449Z,4.3
2023-05-05T03:35:01.270Z,4.2
2023-05-05T03:40:48.083Z,4.5
2023-05-05T03:46:32.900Z,3.5
2023-05-05T03:52:18.517Z,4.7
2023-05-05T03:58:03.217Z,5.1
2023-05-05T04:03:48.458Z,4.6
2023-05-05T04:09:33.285Z,4.8
2023-05-05T04:15:18.188Z,4.1
2023-05-05T04:21:03.068Z,4.4
2023-05-05T04:26:47.857Z,5.1
2023-05-05T04:32:32.728Z,4.4
2023-05-05T04:38:17.683Z,6.7
2023-05-05T04:44:02.220Z,4.7
2023-05-05T04:49:46.846Z,5
2023-05-05T04:55:31.748Z,4
2023-05-05T05:01:16.463Z,4
2023-05-05T05:07:02.675Z,3.5
2023-05-05T05:12:47.677Z,6.1
2023-05-05T05:18:32.667Z,6.6
2023-05-05T05:24:17.417Z,6.9
2023-05-05T05:30:02.029Z,8
2023-05-05T05:35:46.765Z,7
2023-05-05T05:41:31.458Z,5.9
2023-05-05T05:47:16.082Z,4.6
2023-05-05T05:53:00.992Z,5
2023-05-05T05:58:45.845Z,4.3
2023-05-05T06:04:31.491Z,4.5
2023-05-05T06:10:31.198Z,4.8
2023-05-05T06:16:16.692Z,5.3
2023-05-05T06:22:01.451Z,7.8
2023-05-05T06:27:46.217Z,6.1
2023-05-05T06:33:31.042Z,6
2023-05-05T06:39:18.708Z,6.1
2023-05-05T06:45:03.314Z,6.9
2023-05-05T06:50:48.281Z,5.8
2023-05-05T06:56:33.640Z,4.3
2023-05-05T07:02:18.274Z,4
2023-05-05T07:08:02.995Z,5.7
2023-05-05T07:13:47.755Z,3.7
2023-05-05T07:19:32.589Z,3.3
2023-05-05T07:25:17.484Z,4
2023-05-05T07:31:02.279Z,3.3
2023-05-05T07:36:47.476Z,3.9
2023-05-05T07:42:32.497Z,4.1
2023-05-05T07:48:17.274Z,6.6
2023-05-05T07:54:02.430Z,4.4
2023-05-05T07:59:47.069Z,4
2023-05-05T08:05:31.771Z,5.1
2023-05-05T08:11:16.484Z,3.6
2023-05-05T08:17:01.325Z,4.1
2023-05-05T08:22:46.179Z,3.9
2023-05-05T08:28:30.891Z,2.8
2023-05-05T08:34:15.521Z,3.3
2023-05-05T08:40:00.483Z,3.9
2023-05-05T08:45:45.385Z,3
2023-05-05T08:51:31.026Z,3.8
2023-05-05T08:57:18.647Z,4.5
2023-05-05T09:03:05.504Z,4.2
2023-05-05T09:08:50.260Z,5.9
2023-05-05T09:14:34.862Z,6.1
2023-05-05T09:20:20.443Z,5
2023-05-05T09:26:11.286Z,5.3
2023-05-05T09:32:07.286Z,3.8
2023-05-05T09:37:52.451Z,5.9
2023-05-05T09:43:42.073Z,6.1
2023-05-05T09:49:26.878Z,5.3
2023-05-05T09:55:17.244Z,5
2023-05-05T10:01:02.475Z,4.9
2023-05-05T10:06:48.152Z,4.7
2023-05-05T10:12:33.236Z,6.3
2023-05-05T10:18:18.569Z,5.7
2023-05-05T10:24:07.112Z,4.1
2023-05-05T10:29:55.974Z,4.6
2023-05-05T10:35:43.637Z,4.5
2023-05-05T10:41:28.836Z,4.4
2023-05-05T10:47:14.061Z,5.1
2023-05-05T10:53:04.959Z,5.5
2023-05-05T10:59:01.976Z,5.6
2023-05-05T11:04:46.979Z,5.2
2023-05-05T11:10:36.813Z,3.7
2023-05-05T11:16:32.755Z,5.9
2023-05-05T11:22:17.686Z,9.8
2023-05-05T11:28:12.385Z,21.6
2023-05-05T11:33:57.220Z,27.8
2023-05-05T11:39:53.528Z,28.7
2023-05-05T11:45:38.375Z,27.2
2023-05-05T11:51:23.132Z,28.1
2023-05-05T11:57:07.940Z,26.7
2023-05-05T12:02:57.728Z,24.1
2023-05-05T12:08:43.499Z,24.9
2023-05-05T12:14:28.606Z,27.6
2023-05-05T12:20:15.635Z,21.2
2023-05-05T12:26:00.449Z,21.8
2023-05-05T12:31:45.824Z,21.5
2023-05-05T12:37:32.429Z,20.4
2023-05-05T12:43:21.845Z,20
2023-05-05T12:49:07.470Z,20.3
2023-05-05T12:55:02.494Z,18.5
2023-05-05T13:00:47.327Z,18.4
2023-05-05T13:06:32.069Z,20.3
2023-05-05T13:12:17.357Z,18.1
2023-05-05T13:18:06.519Z,17
2023-05-05T13:23:51.461Z,18.6
2023-05-05T13:29:36.242Z,16.2
2023-05-05T13:35:22.299Z,15.1
2023-05-05T13:41:06.977Z,13.6
2023-05-05T13:46:52.487Z,14.2
2023-05-05T13:52:38.626Z,12.9
2023-05-05T13:58:23.474Z,14.1
2023-05-05T14:04:09.652Z,12.3
2023-05-05T14:09:54.390Z,12
2023-05-05T14:15:39.109Z,12.8
2023-05-05T14:21:23.682Z,13.5
2023-05-05T14:27:08.272Z,9.6
2023-05-05T14:32:53.469Z,8.6
2023-05-05T14:38:38.478Z,7.8
2023-05-05T14:44:23.257Z,8.1
2023-05-05T14:50:08.323Z,6.3
2023-05-05T14:55:53.032Z,6
2023-05-05T15:01:37.835Z,8.6
2023-05-05T15:07:22.492Z,8.1
2023-05-05T15:13:07.549Z,6.8
2023-05-05T15:18:52.391Z,7.2
2023-05-05T15:24:37.076Z,10.5
2023-05-05T15:30:22.237Z,8.9
2023-05-05T15:36:07.092Z,7.6
2023-05-05T15:41:52.098Z,8.2
2023-05-05T15:47:36.872Z,10.2
2023-05-05T15:53:21.568Z,7.4
2023-05-05T15:59:06.176Z,8.7
2023-05-05T16:04:51.179Z,6
2023-05-05T16:10:36.127Z,6.1
2023-05-05T16:16:21.123Z,5.7
2023-05-05T16:22:05.807Z,8.8
2023-05-05T16:27:50.469Z,6.8
2023-05-05T16:33:34.943Z,6.9
2023-05-05T16:39:19.686Z,6
2023-05-05T16:45:04.533Z,4.7
2023-05-05T16:50:49.404Z,5.9
2023-05-05T16:56:33.973Z,6.6
2023-05-05T17:02:18.941Z,3.6
2023-05-05T17:08:03.557Z,4.3
2023-05-05T17:13:48.259Z,3.8
2023-05-05T17:19:32.966Z,6.8
2023-05-05T17:25:17.719Z,6.5
2023-05-05T17:31:02.417Z,5.8
2023-05-05T17:36:47.103Z,5.1
2023-05-05T17:42:31.751Z,4.6
2023-05-05T17:48:16.620Z,4.8
2023-05-05T17:54:01.313Z,7
2023-05-05T17:59:45.932Z,4.4
2023-05-05T18:05:30.522Z,4.5
2023-05-05T18:11:15.328Z,3.9
2023-05-05T18:17:00.043Z,4
2023-05-05T18:22:44.760Z,5.4
2023-05-05T18:28:30.357Z,4.5
2023-05-05T18:34:15.161Z,4.1
2023-05-05T18:39:59.663Z,4.8
2023-05-05T18:45:44.446Z,4.6
2023-05-05T18:51:29.341Z,4.7
2023-05-05T18:57:13.964Z,5.6
2023-05-05T19:02:58.802Z,4.3
2023-05-05T19:08:43.417Z,5.1
2023-05-05T19:14:28.137Z,4.2
2023-05-05T19:20:13.681Z,3.2
2023-05-05T19:25:58.380Z,2.7
2023-05-05T19:31:43.556Z,3.7
2023-05-05T19:37:28.242Z,3.7
2023-05-05T19:43:13.144Z,4.6
2023-05-05T19:48:57.957Z,4.6
2023-05-05T19:54:42.710Z,3.9
2023-05-05T20:00:27.237Z,3.9
2023-05-05T20:06:11.773Z,3.3
2023-05-05T20:11:56.243Z,3.5
2023-05-05T20:17:41.341Z,3.7
2023-05-05T20:23:26.041Z,3.6
2023-05-05T20:29:10.757Z,4.4
2023-05-05T20:34:55.476Z,3
2023-05-05T20:40:40.290Z,2.4
2023-05-05T20:46:25.037Z,2.7
2023-05-05T20:52:10.123Z,2.7
2023-05-05T20:57:56.795Z,2.6
2023-05-05T21:03:43.401Z,2.7
2023-05-05T21:09:28.023Z,2.8
2023-05-05T21:15:14.706Z,4.6
2023-05-05T21:20:59.349Z,3.7
2023-05-05T21:26:45.380Z,3.7
2023-05-05T21:32:31.273Z,4
2023-05-05T21:38:16.248Z,3.3
2023-05-05T21:44:01.095Z,5
2023-05-05T21:49:46.045Z,4.4
2023-05-05T21:55:30.769Z,4.4
2023-05-05T22:01:15.746Z,3.8
2023-05-05T22:07:00.392Z,3.9
2023-05-05T22:12:45.296Z,4.3
2023-05-05T22:18:29.963Z,3
2023-05-05T22:24:14.739Z,4.5
2023-05-05T22:29:59.454Z,4.2
2023-05-05T22:35:44.476Z,3.8
2023-05-05T22:41:29.062Z,3.4
2023-05-05T22:47:14.223Z,3.7
2023-05-05T22:52:58.863Z,3.8
2023-05-05T22:58:43.735Z,3.5
2023-05-05T23:04:28.861Z,3.4
2023-05-05T23:10:14.244Z,3.5
2023-05-05T23:15:59.045Z,5.3
2023-05-05T23:21:55.293Z,5
2023-05-05T23:27:41.750Z,4.2
2023-05-05T23:33:26.407Z,4.5
2023-05-05T23:39:11.487Z,4.2
2023-05-05T23:44:56.225Z,5.3
2023-05-05T23:50:40.911Z,5.6
2023-05-05T23:56:25.472Z,5.5
